sensor_id;sensor_type;location;lat;lon;timestamp;temperature;humidity
11532;DHT22;5822;51.000;5.874;2023-06-24T00:01:39;21.60;99.90
11532;DHT22;5822;51.000;5.874;2023-06-24T00:04:06;21.50;99.90
11532;DHT22;5822;51.000;5.874;2023-06-24T00:06:31;21.50;99.90
11532;DHT22;5822;51.000;5.874;2023-06-24T00:08:57;21.50;99.90
11532;DHT22;5822;51.000;5.874;2023-06-24T00:11:27;21.50;99.90
11532;DHT22;5822;51.000;5.874;2023-06-24T00:13:52;21.50;99.90
11532;DHT22;5822;51.000;5.874;2023-06-24T00:16:18;21.50;99.90
11532;DHT22;5822;51.000;5.874;2023-06-24T00:18:51;21.50;99.90
11532;DHT22;5822;51.000;5.874;2023-06-24T00:21:18;21.50;99.90
11532;DHT22;5822;51.000;5.874;2023-06-24T00:23:45;21.50;99.90
11532;DHT22;5822;51.000;5.874;2023-06-24T00:26:11;21.60;99.90
11532;DHT22;5822;51.000;5.874;2023-06-24T00:28:36;21.50;99.90
11532;DHT22;5822;51.000;5.874;2023-06-24T00:31:02;21.60;99.90
11532;DHT22;5822;51.000;5.874;2023-06-24T00:33:29;21.60;99.90
11532;DHT22;5822;51.000;5.874;2023-06-24T00:35:54;21.50;99.90
11532;DHT22;5822;51.000;5.874;2023-06-24T00:38:22;21.50;99.90
11532;DHT22;5822;51.000;5.874;2023-06-24T00:40:47;21.50;99.90
11532;DHT22;5822;51.000;5.874;2023-06-24T00:43:13;21.40;99.90
11532;DHT22;5822;51.000;5.874;2023-06-24T00:45:39;21.40;99.90
11532;DHT22;5822;51.000;5.874;2023-06-24T00:48:05;21.40;99.90
11532;DHT22;5822;51.000;5.874;2023-06-24T00:50:31;21.40;99.90
11532;DHT22;5822;51.000;5.874;2023-06-24T00:52:57;21.40;99.90
11532;DHT22;5822;51.000;5.874;2023-06-24T00:55:22;21.40;99.90
11532;DHT22;5822;51.000;5.874;2023-06-24T00:57:52;21.40;99.90
11532;DHT22;5822;51.000;5.874;2023-06-24T01:00:19;21.40;99.90
11532;DHT22;5822;51.000;5.874;2023-06-24T01:02:50;21.30;99.90
11532;DHT22;5822;51.000;5.874;2023-06-24T01:05:15;21.30;99.90
11532;DHT22;5822;51.000;5.874;2023-06-24T01:07:42;21.30;99.90
11532;DHT22;5822;51.000;5.874;2023-06-24T01:10:09;21.30;99.90
11532;DHT22;5822;51.000;5.874;2023-06-24T01:12:39;21.30;99.90
11532;DHT22;5822;51.000;5.874;2023-06-24T01:15:06;21.30;99.90
11532;DHT22;5822;51.000;5.874;2023-06-24T01:20:51;21.30;99.90
11532;DHT22;5822;51.000;5.874;2023-06-24T01:23:33;21.40;99.90
11532;DHT22;5822;51.000;5.874;2023-06-24T01:32:01;21.20;99.90
11532;DHT22;5822;51.000;5.874;2023-06-24T01:34:41;21.20;99.90
11532;DHT22;5822;51.000;5.874;2023-06-24T01:37:18;21.20;99.90
11532;DHT22;5822;51.000;5.874;2023-06-24T01:40:12;21.20;99.90
11532;DHT22;5822;51.000;5.874;2023-06-24T01:42:38;21.20;99.90
11532;DHT22;5822;51.000;5.874;2023-06-24T01:45:08;21.20;99.90
11532;DHT22;5822;51.000;5.874;2023-06-24T01:47:34;21.10;99.90
11532;DHT22;5822;51.000;5.874;2023-06-24T01:50:03;21.10;99.90
11532;DHT22;5822;51.000;5.874;2023-06-24T01:52:29;21.10;99.90
11532;DHT22;5822;51.000;5.874;2023-06-24T01:54:58;21.10;99.90
11532;DHT22;5822;51.000;5.874;2023-06-24T01:57:26;21.10;99.90
11532;DHT22;5822;51.000;5.874;2023-06-24T01:59:53;21.20;99.90
11532;DHT22;5822;51.000;5.874;2023-06-24T02:02:21;21.20;99.90
11532;DHT22;5822;51.000;5.874;2023-06-24T02:04:48;21.20;99.90
11532;DHT22;5822;51.000;5.874;2023-06-24T02:07:16;21.20;99.90
11532;DHT22;5822;51.000;5.874;2023-06-24T02:09:44;21.20;99.90
11532;DHT22;5822;51.000;5.874;2023-06-24T02:12:11;21.20;99.90
11532;DHT22;5822;51.000;5.874;2023-06-24T02:14:38;21.20;99.90
11532;DHT22;5822;51.000;5.874;2023-06-24T02:17:06;21.10;99.90
11532;DHT22;5822;51.000;5.874;2023-06-24T02:19:34;21.10;99.90
11532;DHT22;5822;51.000;5.874;2023-06-24T02:22:01;21.00;99.90
11532;DHT22;5822;51.000;5.874;2023-06-24T02:24:28;21.00;99.90
11532;DHT22;5822;51.000;5.874;2023-06-24T02:26:56;21.00;99.90
11532;DHT22;5822;51.000;5.874;2023-06-24T02:29:26;21.00;99.90
11532;DHT22;5822;51.000;5.874;2023-06-24T02:31:53;21.00;99.90
11532;DHT22;5822;51.000;5.874;2023-06-24T02:34:19;21.00;99.90
11532;DHT22;5822;51.000;5.874;2023-06-24T02:36:45;21.00;99.90
11532;DHT22;5822;51.000;5.874;2023-06-24T02:39:11;21.00;99.90
11532;DHT22;5822;51.000;5.874;2023-06-24T02:41:36;21.00;99.90
11532;DHT22;5822;51.000;5.874;2023-06-24T02:44:02;21.00;99.90
11532;DHT22;5822;51.000;5.874;2023-06-24T02:46:29;21.00;99.90
11532;DHT22;5822;51.000;5.874;2023-06-24T02:48:57;21.00;99.90
11532;DHT22;5822;51.000;5.874;2023-06-24T02:51:25;21.00;99.90
11532;DHT22;5822;51.000;5.874;2023-06-24T02:53:51;20.90;99.90
11532;DHT22;5822;51.000;5.874;2023-06-24T02:56:17;20.80;99.90
11532;DHT22;5822;51.000;5.874;2023-06-24T02:58:47;20.80;99.90
11532;DHT22;5822;51.000;5.874;2023-06-24T03:01:14;20.80;99.90
11532;DHT22;5822;51.000;5.874;2023-06-24T03:03:41;20.70;99.90
11532;DHT22;5822;51.000;5.874;2023-06-24T03:06:07;20.70;99.90
11532;DHT22;5822;51.000;5.874;2023-06-24T03:08:38;20.70;99.90
11532;DHT22;5822;51.000;5.874;2023-06-24T03:11:04;20.80;99.90
11532;DHT22;5822;51.000;5.874;2023-06-24T03:13:30;20.80;99.90
11532;DHT22;5822;51.000;5.874;2023-06-24T03:15:56;20.80;99.90
11532;DHT22;5822;51.000;5.874;2023-06-24T03:18:21;20.70;99.90
11532;DHT22;5822;51.000;5.874;2023-06-24T03:20:47;20.70;99.90
11532;DHT22;5822;51.000;5.874;2023-06-24T03:23:13;20.70;99.90
11532;DHT22;5822;51.000;5.874;2023-06-24T03:25:38;20.70;99.90
11532;DHT22;5822;51.000;5.874;2023-06-24T03:28:04;20.60;99.90
11532;DHT22;5822;51.000;5.874;2023-06-24T03:30:32;20.60;99.90
11532;DHT22;5822;51.000;5.874;2023-06-24T03:32:58;20.60;99.90
11532;DHT22;5822;51.000;5.874;2023-06-24T03:35:24;20.60;99.90
11532;DHT22;5822;51.000;5.874;2023-06-24T03:37:50;20.60;99.90
11532;DHT22;5822;51.000;5.874;2023-06-24T03:40:15;20.60;99.90
11532;DHT22;5822;51.000;5.874;2023-06-24T03:42:41;20.60;99.90
11532;DHT22;5822;51.000;5.874;2023-06-24T03:45:07;20.60;99.90
11532;DHT22;5822;51.000;5.874;2023-06-24T03:47:32;20.60;99.90
11532;DHT22;5822;51.000;5.874;2023-06-24T03:49:58;20.50;99.90
11532;DHT22;5822;51.000;5.874;2023-06-24T03:52:25;20.50;99.90
11532;DHT22;5822;51.000;5.874;2023-06-24T03:54:51;20.50;99.90
11532;DHT22;5822;51.000;5.874;2023-06-24T03:57:16;20.60;99.90
11532;DHT22;5822;51.000;5.874;2023-06-24T03:59:42;20.60;99.90
11532;DHT22;5822;51.000;5.874;2023-06-24T04:02:08;20.50;99.90
11532;DHT22;5822;51.000;5.874;2023-06-24T04:04:36;20.50;99.90
11532;DHT22;5822;51.000;5.874;2023-06-24T04:07:02;20.50;99.90
11532;DHT22;5822;51.000;5.874;2023-06-24T04:09:33;20.60;99.90
11532;DHT22;5822;51.000;5.874;2023-06-24T04:11:59;20.60;99.90
11532;DHT22;5822;51.000;5.874;2023-06-24T04:14:25;20.60;99.90
11532;DHT22;5822;51.000;5.874;2023-06-24T04:16:50;20.60;99.90
11532;DHT22;5822;51.000;5.874;2023-06-24T04:19:16;20.50;99.90
11532;DHT22;5822;51.000;5.874;2023-06-24T04:21:42;20.40;99.90
11532;DHT22;5822;51.000;5.874;2023-06-24T04:24:08;20.50;99.90
11532;DHT22;5822;51.000;5.874;2023-06-24T04:26:33;20.50;99.90
11532;DHT22;5822;51.000;5.874;2023-06-24T04:28:59;20.40;99.90
11532;DHT22;5822;51.000;5.874;2023-06-24T04:31:25;20.50;99.90
11532;DHT22;5822;51.000;5.874;2023-06-24T04:33:51;20.50;99.90
11532;DHT22;5822;51.000;5.874;2023-06-24T04:36:16;20.50;99.90
11532;DHT22;5822;51.000;5.874;2023-06-24T04:38:42;20.60;99.90
11532;DHT22;5822;51.000;5.874;2023-06-24T04:41:08;20.60;99.90
11532;DHT22;5822;51.000;5.874;2023-06-24T04:43:34;20.50;99.90
11532;DHT22;5822;51.000;5.874;2023-06-24T04:46:01;20.50;99.90
11532;DHT22;5822;51.000;5.874;2023-06-24T04:48:27;20.50;99.90
11532;DHT22;5822;51.000;5.874;2023-06-24T04:50:53;20.60;99.90
11532;DHT22;5822;51.000;5.874;2023-06-24T04:53:22;20.50;99.90
11532;DHT22;5822;51.000;5.874;2023-06-24T04:55:48;20.60;99.90
11532;DHT22;5822;51.000;5.874;2023-06-24T04:58:13;20.60;99.90
11532;DHT22;5822;51.000;5.874;2023-06-24T05:00:39;20.60;99.90
11532;DHT22;5822;51.000;5.874;2023-06-24T05:03:04;20.60;99.90
11532;DHT22;5822;51.000;5.874;2023-06-24T05:05:30;20.70;99.90
11532;DHT22;5822;51.000;5.874;2023-06-24T05:07:56;20.60;99.90
11532;DHT22;5822;51.000;5.874;2023-06-24T05:10:22;20.60;99.90
11532;DHT22;5822;51.000;5.874;2023-06-24T05:12:47;20.70;99.90
11532;DHT22;5822;51.000;5.874;2023-06-24T05:15:13;20.70;99.90
11532;DHT22;5822;51.000;5.874;2023-06-24T05:17:39;20.70;99.90
11532;DHT22;5822;51.000;5.874;2023-06-24T05:20:05;20.70;99.90
11532;DHT22;5822;51.000;5.874;2023-06-24T05:22:31;20.70;99.90
11532;DHT22;5822;51.000;5.874;2023-06-24T05:24:57;20.70;99.90
11532;DHT22;5822;51.000;5.874;2023-06-24T05:27:22;20.70;99.90
11532;DHT22;5822;51.000;5.874;2023-06-24T05:29:48;20.70;99.90
11532;DHT22;5822;51.000;5.874;2023-06-24T05:32:14;20.70;99.90
11532;DHT22;5822;51.000;5.874;2023-06-24T05:34:40;20.80;99.90
11532;DHT22;5822;51.000;5.874;2023-06-24T05:37:05;20.80;99.90
11532;DHT22;5822;51.000;5.874;2023-06-24T05:39:31;20.80;99.90
11532;DHT22;5822;51.000;5.874;2023-06-24T05:41:57;20.80;99.90
11532;DHT22;5822;51.000;5.874;2023-06-24T05:44:22;20.80;99.90
11532;DHT22;5822;51.000;5.874;2023-06-24T05:46:48;20.90;99.90
11532;DHT22;5822;51.000;5.874;2023-06-24T05:49:14;20.90;99.90
11532;DHT22;5822;51.000;5.874;2023-06-24T05:51:40;20.90;99.90
11532;DHT22;5822;51.000;5.874;2023-06-24T05:54:05;20.90;99.90
11532;DHT22;5822;51.000;5.874;2023-06-24T05:56:33;20.90;99.90
11532;DHT22;5822;51.000;5.874;2023-06-24T05:58:59;20.90;99.90
11532;DHT22;5822;51.000;5.874;2023-06-24T06:01:24;20.90;99.90
11532;DHT22;5822;51.000;5.874;2023-06-24T06:03:50;21.00;99.90
11532;DHT22;5822;51.000;5.874;2023-06-24T06:06:15;21.00;99.90
11532;DHT22;5822;51.000;5.874;2023-06-24T06:08:41;21.00;99.90
11532;DHT22;5822;51.000;5.874;2023-06-24T06:11:07;21.00;99.90
11532;DHT22;5822;51.000;5.874;2023-06-24T06:13:33;21.00;99.90
11532;DHT22;5822;51.000;5.874;2023-06-24T06:15:59;21.00;99.90
11532;DHT22;5822;51.000;5.874;2023-06-24T06:18:24;21.10;99.90
11532;DHT22;5822;51.000;5.874;2023-06-24T06:20:50;21.10;99.90
11532;DHT22;5822;51.000;5.874;2023-06-24T06:23:16;21.10;99.90
11532;DHT22;5822;51.000;5.874;2023-06-24T06:25:42;21.10;99.90
11532;DHT22;5822;51.000;5.874;2023-06-24T06:28:08;21.10;99.90
11532;DHT22;5822;51.000;5.874;2023-06-24T06:30:34;21.20;99.90
11532;DHT22;5822;51.000;5.874;2023-06-24T06:33:00;21.20;99.90
11532;DHT22;5822;51.000;5.874;2023-06-24T06:35:25;21.20;99.90
11532;DHT22;5822;51.000;5.874;2023-06-24T06:37:51;21.20;99.90
11532;DHT22;5822;51.000;5.874;2023-06-24T06:40:23;21.20;99.90
11532;DHT22;5822;51.000;5.874;2023-06-24T06:42:49;21.20;99.90
11532;DHT22;5822;51.000;5.874;2023-06-24T06:45:15;21.30;99.90
11532;DHT22;5822;51.000;5.874;2023-06-24T06:47:40;21.30;99.90
11532;DHT22;5822;51.000;5.874;2023-06-24T06:50:07;21.30;99.90
11532;DHT22;5822;51.000;5.874;2023-06-24T06:52:33;21.30;99.90
11532;DHT22;5822;51.000;5.874;2023-06-24T06:54:59;21.30;99.90
11532;DHT22;5822;51.000;5.874;2023-06-24T06:57:25;21.30;99.90
11532;DHT22;5822;51.000;5.874;2023-06-24T06:59:51;21.30;99.90
11532;DHT22;5822;51.000;5.874;2023-06-24T07:02:21;21.30;99.90
11532;DHT22;5822;51.000;5.874;2023-06-24T07:04:46;21.30;99.90
11532;DHT22;5822;51.000;5.874;2023-06-24T07:07:13;21.30;99.90
11532;DHT22;5822;51.000;5.874;2023-06-24T07:09:39;21.30;99.90
11532;DHT22;5822;51.000;5.874;2023-06-24T07:12:06;21.40;99.90
11532;DHT22;5822;51.000;5.874;2023-06-24T07:14:32;21.40;99.90
11532;DHT22;5822;51.000;5.874;2023-06-24T07:16:57;21.40;99.90
11532;DHT22;5822;51.000;5.874;2023-06-24T07:19:23;21.40;99.90
11532;DHT22;5822;51.000;5.874;2023-06-24T07:21:49;21.40;99.90
11532;DHT22;5822;51.000;5.874;2023-06-24T07:24:14;21.40;99.90
11532;DHT22;5822;51.000;5.874;2023-06-24T07:26:40;21.40;99.90
11532;DHT22;5822;51.000;5.874;2023-06-24T07:29:06;21.40;99.90
11532;DHT22;5822;51.000;5.874;2023-06-24T07:31:32;21.40;99.90
11532;DHT22;5822;51.000;5.874;2023-06-24T07:33:58;21.40;99.90
11532;DHT22;5822;51.000;5.874;2023-06-24T07:36:24;21.50;99.90
11532;DHT22;5822;51.000;5.874;2023-06-24T07:38:49;21.50;99.90
11532;DHT22;5822;51.000;5.874;2023-06-24T07:41:15;21.50;99.90
11532;DHT22;5822;51.000;5.874;2023-06-24T07:43:41;21.50;99.90
11532;DHT22;5822;51.000;5.874;2023-06-24T07:46:07;21.50;99.90
11532;DHT22;5822;51.000;5.874;2023-06-24T07:48:32;21.50;99.90
11532;DHT22;5822;51.000;5.874;2023-06-24T07:50:58;21.50;99.90
11532;DHT22;5822;51.000;5.874;2023-06-24T07:53:24;21.50;99.90
11532;DHT22;5822;51.000;5.874;2023-06-24T07:55:50;21.50;99.90
11532;DHT22;5822;51.000;5.874;2023-06-24T07:58:15;21.50;99.90
11532;DHT22;5822;51.000;5.874;2023-06-24T08:00:41;21.60;99.90
11532;DHT22;5822;51.000;5.874;2023-06-24T08:03:06;21.60;99.90
11532;DHT22;5822;51.000;5.874;2023-06-24T08:05:32;21.60;99.90
11532;DHT22;5822;51.000;5.874;2023-06-24T08:07:58;21.60;99.90
11532;DHT22;5822;51.000;5.874;2023-06-24T08:10:23;21.60;99.90
11532;DHT22;5822;51.000;5.874;2023-06-24T08:12:49;21.60;99.90
11532;DHT22;5822;51.000;5.874;2023-06-24T08:15:15;21.60;99.90
11532;DHT22;5822;51.000;5.874;2023-06-24T08:17:40;21.60;99.90
11532;DHT22;5822;51.000;5.874;2023-06-24T08:20:06;21.60;99.90
11532;DHT22;5822;51.000;5.874;2023-06-24T08:22:32;21.70;99.90
11532;DHT22;5822;51.000;5.874;2023-06-24T08:24:58;21.60;99.90
11532;DHT22;5822;51.000;5.874;2023-06-24T08:27:24;21.60;99.90
11532;DHT22;5822;51.000;5.874;2023-06-24T08:29:50;21.70;99.90
11532;DHT22;5822;51.000;5.874;2023-06-24T08:32:16;21.70;99.90
11532;DHT22;5822;51.000;5.874;2023-06-24T08:34:41;21.70;99.90
11532;DHT22;5822;51.000;5.874;2023-06-24T08:37:07;21.70;99.90
11532;DHT22;5822;51.000;5.874;2023-06-24T08:39:33;21.70;99.90
11532;DHT22;5822;51.000;5.874;2023-06-24T08:41:59;21.70;99.90
11532;DHT22;5822;51.000;5.874;2023-06-24T08:44:24;21.70;99.90
11532;DHT22;5822;51.000;5.874;2023-06-24T08:46:50;21.70;99.90
11532;DHT22;5822;51.000;5.874;2023-06-24T08:51:50;21.80;99.90
11532;DHT22;5822;51.000;5.874;2023-06-24T08:54:19;21.80;99.90
11532;DHT22;5822;51.000;5.874;2023-06-24T08:56:45;21.80;99.90
11532;DHT22;5822;51.000;5.874;2023-06-24T08:59:11;21.80;99.90
11532;DHT22;5822;51.000;5.874;2023-06-24T09:01:36;21.80;99.90
11532;DHT22;5822;51.000;5.874;2023-06-24T09:04:02;21.90;99.90
11532;DHT22;5822;51.000;5.874;2023-06-24T09:06:30;21.90;99.90
11532;DHT22;5822;51.000;5.874;2023-06-24T09:08:56;21.90;99.90
11532;DHT22;5822;51.000;5.874;2023-06-24T09:11:26;21.90;99.90
11532;DHT22;5822;51.000;5.874;2023-06-24T09:13:59;21.90;99.90
11532;DHT22;5822;51.000;5.874;2023-06-24T09:16:25;21.90;99.90
11532;DHT22;5822;51.000;5.874;2023-06-24T09:18:52;21.90;99.90
11532;DHT22;5822;51.000;5.874;2023-06-24T09:21:28;21.90;99.90
11532;DHT22;5822;51.000;5.874;2023-06-24T09:23:58;22.00;99.90
11532;DHT22;5822;51.000;5.874;2023-06-24T09:26:24;22.00;99.90
11532;DHT22;5822;51.000;5.874;2023-06-24T09:28:53;22.00;99.90
11532;DHT22;5822;51.000;5.874;2023-06-24T09:31:23;22.00;99.90
11532;DHT22;5822;51.000;5.874;2023-06-24T09:33:49;22.00;99.90
11532;DHT22;5822;51.000;5.874;2023-06-24T09:36:15;22.00;99.90
11532;DHT22;5822;51.000;5.874;2023-06-24T09:38:42;21.90;99.90
11532;DHT22;5822;51.000;5.874;2023-06-24T09:41:09;22.00;99.90
11532;DHT22;5822;51.000;5.874;2023-06-24T09:43:36;22.00;99.90
11532;DHT22;5822;51.000;5.874;2023-06-24T09:46:03;22.00;99.90
11532;DHT22;5822;51.000;5.874;2023-06-24T09:48:30;22.00;99.90
11532;DHT22;5822;51.000;5.874;2023-06-24T09:50:59;22.00;99.90
11532;DHT22;5822;51.000;5.874;2023-06-24T09:53:28;22.10;99.90
11532;DHT22;5822;51.000;5.874;2023-06-24T09:55:55;22.00;99.90
11532;DHT22;5822;51.000;5.874;2023-06-24T09:58:23;22.10;99.90
11532;DHT22;5822;51.000;5.874;2023-06-24T10:00:50;22.10;99.90
11532;DHT22;5822;51.000;5.874;2023-06-24T10:03:16;22.10;99.90
11532;DHT22;5822;51.000;5.874;2023-06-24T10:05:42;22.10;99.90
11532;DHT22;5822;51.000;5.874;2023-06-24T10:08:09;22.10;99.90
11532;DHT22;5822;51.000;5.874;2023-06-24T10:10:35;22.10;99.90
11532;DHT22;5822;51.000;5.874;2023-06-24T10:13:01;22.20;99.90
11532;DHT22;5822;51.000;5.874;2023-06-24T10:15:27;22.20;99.90
11532;DHT22;5822;51.000;5.874;2023-06-24T10:17:53;22.20;99.90
11532;DHT22;5822;51.000;5.874;2023-06-24T10:20:25;22.20;99.90
11532;DHT22;5822;51.000;5.874;2023-06-24T10:22:52;22.20;99.90
11532;DHT22;5822;51.000;5.874;2023-06-24T10:25:17;22.20;99.90
11532;DHT22;5822;51.000;5.874;2023-06-24T10:27:44;22.10;99.90
11532;DHT22;5822;51.000;5.874;2023-06-24T10:30:22;22.20;99.90
11532;DHT22;5822;51.000;5.874;2023-06-24T10:32:56;22.30;99.90
11532;DHT22;5822;51.000;5.874;2023-06-24T10:35:23;22.30;99.90
11532;DHT22;5822;51.000;5.874;2023-06-24T10:38:00;22.30;99.90
11532;DHT22;5822;51.000;5.874;2023-06-24T10:40:44;22.30;99.90
11532;DHT22;5822;51.000;5.874;2023-06-24T10:43:28;22.30;99.90
11532;DHT22;5822;51.000;5.874;2023-06-24T10:45:58;22.30;99.90
11532;DHT22;5822;51.000;5.874;2023-06-24T10:48:24;22.30;99.90
11532;DHT22;5822;51.000;5.874;2023-06-24T10:50:50;22.30;99.90
11532;DHT22;5822;51.000;5.874;2023-06-24T10:53:17;22.30;99.90
11532;DHT22;5822;51.000;5.874;2023-06-24T10:55:46;22.30;99.90
11532;DHT22;5822;51.000;5.874;2023-06-24T10:58:15;22.30;99.90
11532;DHT22;5822;51.000;5.874;2023-06-24T11:00:41;22.30;99.90
11532;DHT22;5822;51.000;5.874;2023-06-24T11:03:14;22.30;99.90
11532;DHT22;5822;51.000;5.874;2023-06-24T11:05:44;22.40;99.90
11532;DHT22;5822;51.000;5.874;2023-06-24T11:08:10;22.40;99.90
11532;DHT22;5822;51.000;5.874;2023-06-24T11:11:02;22.30;99.90
11532;DHT22;5822;51.000;5.874;2023-06-24T11:13:31;22.40;99.90
11532;DHT22;5822;51.000;5.874;2023-06-24T11:16:00;22.30;99.90
11532;DHT22;5822;51.000;5.874;2023-06-24T11:18:26;22.30;99.90
11532;DHT22;5822;51.000;5.874;2023-06-24T11:20:54;22.20;99.90
11532;DHT22;5822;51.000;5.874;2023-06-24T11:23:21;22.40;99.90
11532;DHT22;5822;51.000;5.874;2023-06-24T11:25:46;22.40;99.90
11532;DHT22;5822;51.000;5.874;2023-06-24T11:28:19;22.40;99.90
11532;DHT22;5822;51.000;5.874;2023-06-24T11:30:45;22.50;99.90
11532;DHT22;5822;51.000;5.874;2023-06-24T11:33:10;22.40;99.90
11532;DHT22;5822;51.000;5.874;2023-06-24T11:35:36;22.40;99.90
11532;DHT22;5822;51.000;5.874;2023-06-24T11:38:02;22.50;99.90
11532;DHT22;5822;51.000;5.874;2023-06-24T11:40:30;22.50;99.90
11532;DHT22;5822;51.000;5.874;2023-06-24T11:42:57;22.50;99.90
11532;DHT22;5822;51.000;5.874;2023-06-24T11:45:22;22.50;99.90
11532;DHT22;5822;51.000;5.874;2023-06-24T11:47:48;22.60;99.90
11532;DHT22;5822;51.000;5.874;2023-06-24T11:50:14;22.60;99.90
11532;DHT22;5822;51.000;5.874;2023-06-24T11:52:45;22.60;99.90
11532;DHT22;5822;51.000;5.874;2023-06-24T11:55:31;22.50;99.90
11532;DHT22;5822;51.000;5.874;2023-06-24T12:00:31;22.50;99.90
11532;DHT22;5822;51.000;5.874;2023-06-24T12:03:00;22.50;99.90
11532;DHT22;5822;51.000;5.874;2023-06-24T12:08:05;22.60;99.90
11532;DHT22;5822;51.000;5.874;2023-06-24T12:10:35;22.60;99.90
11532;DHT22;5822;51.000;5.874;2023-06-24T12:13:01;22.70;99.90
11532;DHT22;5822;51.000;5.874;2023-06-24T12:15:28;22.70;99.90
11532;DHT22;5822;51.000;5.874;2023-06-24T12:17:54;22.80;99.90
11532;DHT22;5822;51.000;5.874;2023-06-24T12:20:20;22.80;99.90
11532;DHT22;5822;51.000;5.874;2023-06-24T12:22:48;22.80;99.90
11532;DHT22;5822;51.000;5.874;2023-06-24T12:25:14;22.90;99.90
11532;DHT22;5822;51.000;5.874;2023-06-24T12:27:42;22.80;99.90
11532;DHT22;5822;51.000;5.874;2023-06-24T12:30:09;22.80;99.90
11532;DHT22;5822;51.000;5.874;2023-06-24T12:32:35;22.80;99.90
11532;DHT22;5822;51.000;5.874;2023-06-24T12:35:01;22.80;99.90
11532;DHT22;5822;51.000;5.874;2023-06-24T12:37:31;22.90;99.90
11532;DHT22;5822;51.000;5.874;2023-06-24T12:40:00;23.00;99.90
11532;DHT22;5822;51.000;5.874;2023-06-24T12:42:27;23.00;99.90
11532;DHT22;5822;51.000;5.874;2023-06-24T12:44:53;23.00;99.90
11532;DHT22;5822;51.000;5.874;2023-06-24T12:47:19;23.10;99.90
11532;DHT22;5822;51.000;5.874;2023-06-24T12:49:45;23.20;99.90
11532;DHT22;5822;51.000;5.874;2023-06-24T12:52:12;23.20;99.90
11532;DHT22;5822;51.000;5.874;2023-06-24T12:54:38;23.20;99.90
11532;DHT22;5822;51.000;5.874;2023-06-24T12:57:04;23.20;99.90
11532;DHT22;5822;51.000;5.874;2023-06-24T12:59:30;23.20;99.90
11532;DHT22;5822;51.000;5.874;2023-06-24T13:01:56;23.10;99.90
11532;DHT22;5822;51.000;5.874;2023-06-24T13:04:21;23.20;99.90
11532;DHT22;5822;51.000;5.874;2023-06-24T13:06:50;23.20;99.90
11532;DHT22;5822;51.000;5.874;2023-06-24T13:09:16;23.10;99.90
11532;DHT22;5822;51.000;5.874;2023-06-24T13:11:42;23.20;99.90
11532;DHT22;5822;51.000;5.874;2023-06-24T13:14:08;23.60;99.90
11532;DHT22;5822;51.000;5.874;2023-06-24T13:16:35;24.30;99.90
11532;DHT22;5822;51.000;5.874;2023-06-24T13:19:01;25.00;99.90
11532;DHT22;5822;51.000;5.874;2023-06-24T13:21:27;25.50;99.90
11532;DHT22;5822;51.000;5.874;2023-06-24T13:23:52;25.80;99.90
11532;DHT22;5822;51.000;5.874;2023-06-24T13:26:18;26.10;99.90
11532;DHT22;5822;51.000;5.874;2023-06-24T13:28:44;26.20;99.90
11532;DHT22;5822;51.000;5.874;2023-06-24T13:31:10;26.20;99.90
11532;DHT22;5822;51.000;5.874;2023-06-24T13:33:38;26.30;99.90
11532;DHT22;5822;51.000;5.874;2023-06-24T13:36:07;26.20;99.90
11532;DHT22;5822;51.000;5.874;2023-06-24T13:38:33;26.20;99.90
11532;DHT22;5822;51.000;5.874;2023-06-24T13:40:58;26.40;99.90
11532;DHT22;5822;51.000;5.874;2023-06-24T13:43:24;26.70;99.90
11532;DHT22;5822;51.000;5.874;2023-06-24T13:45:51;26.70;99.90
11532;DHT22;5822;51.000;5.874;2023-06-24T13:48:17;26.80;99.90
11532;DHT22;5822;51.000;5.874;2023-06-24T13:50:43;27.00;99.90
11532;DHT22;5822;51.000;5.874;2023-06-24T13:53:08;26.90;99.90
11532;DHT22;5822;51.000;5.874;2023-06-24T13:55:34;26.80;99.90
11532;DHT22;5822;51.000;5.874;2023-06-24T13:58:01;26.60;99.90
11532;DHT22;5822;51.000;5.874;2023-06-24T14:00:27;26.50;99.90
11532;DHT22;5822;51.000;5.874;2023-06-24T14:02:53;26.30;99.90
11532;DHT22;5822;51.000;5.874;2023-06-24T14:05:19;26.50;99.90
11532;DHT22;5822;51.000;5.874;2023-06-24T14:07:44;26.30;99.90
11532;DHT22;5822;51.000;5.874;2023-06-24T14:10:10;26.10;99.90
11532;DHT22;5822;51.000;5.874;2023-06-24T14:12:36;26.20;99.90
11532;DHT22;5822;51.000;5.874;2023-06-24T14:15:03;26.30;99.90
11532;DHT22;5822;51.000;5.874;2023-06-24T14:17:29;26.40;99.90
11532;DHT22;5822;51.000;5.874;2023-06-24T14:19:54;26.20;99.90
11532;DHT22;5822;51.000;5.874;2023-06-24T14:22:20;25.90;99.90
11532;DHT22;5822;51.000;5.874;2023-06-24T14:24:48;25.70;99.90
11532;DHT22;5822;51.000;5.874;2023-06-24T14:27:13;25.80;99.90
11532;DHT22;5822;51.000;5.874;2023-06-24T14:29:39;26.00;99.90
11532;DHT22;5822;51.000;5.874;2023-06-24T14:32:05;26.20;99.90
11532;DHT22;5822;51.000;5.874;2023-06-24T14:34:31;26.10;99.90
11532;DHT22;5822;51.000;5.874;2023-06-24T14:36:57;26.20;99.90
11532;DHT22;5822;51.000;5.874;2023-06-24T14:39:23;26.40;99.90
11532;DHT22;5822;51.000;5.874;2023-06-24T14:41:49;26.40;99.90
11532;DHT22;5822;51.000;5.874;2023-06-24T14:44:14;26.20;99.90
11532;DHT22;5822;51.000;5.874;2023-06-24T14:46:40;26.00;99.90
11532;DHT22;5822;51.000;5.874;2023-06-24T14:49:05;25.90;99.90
11532;DHT22;5822;51.000;5.874;2023-06-24T14:51:31;26.30;99.90
11532;DHT22;5822;51.000;5.874;2023-06-24T14:53:57;26.50;99.90
11532;DHT22;5822;51.000;5.874;2023-06-24T14:56:25;26.60;99.90
11532;DHT22;5822;51.000;5.874;2023-06-24T14:58:54;26.70;99.90
11532;DHT22;5822;51.000;5.874;2023-06-24T15:01:19;26.90;99.90
11532;DHT22;5822;51.000;5.874;2023-06-24T15:03:45;26.90;99.90
11532;DHT22;5822;51.000;5.874;2023-06-24T15:06:11;27.00;99.90
11532;DHT22;5822;51.000;5.874;2023-06-24T15:08:36;27.00;99.90
11532;DHT22;5822;51.000;5.874;2023-06-24T15:11:02;26.90;99.90
11532;DHT22;5822;51.000;5.874;2023-06-24T15:13:28;26.80;99.90
11532;DHT22;5822;51.000;5.874;2023-06-24T15:15:53;26.60;99.90
11532;DHT22;5822;51.000;5.874;2023-06-24T15:18:22;26.50;99.90
11532;DHT22;5822;51.000;5.874;2023-06-24T15:20:47;26.50;99.90
11532;DHT22;5822;51.000;5.874;2023-06-24T15:23:15;26.50;99.90
11532;DHT22;5822;51.000;5.874;2023-06-24T15:25:40;26.80;99.90
11532;DHT22;5822;51.000;5.874;2023-06-24T15:28:06;26.80;99.90
11532;DHT22;5822;51.000;5.874;2023-06-24T15:30:32;26.60;99.90
11532;DHT22;5822;51.000;5.874;2023-06-24T15:32:57;26.40;99.90
11532;DHT22;5822;51.000;5.874;2023-06-24T15:35:23;26.20;99.90
11532;DHT22;5822;51.000;5.874;2023-06-24T15:37:49;25.90;99.90
11532;DHT22;5822;51.000;5.874;2023-06-24T15:40:14;25.80;99.90
11532;DHT22;5822;51.000;5.874;2023-06-24T15:42:40;25.60;99.90
11532;DHT22;5822;51.000;5.874;2023-06-24T15:45:06;25.40;99.90
11532;DHT22;5822;51.000;5.874;2023-06-24T15:47:31;25.70;99.90
11532;DHT22;5822;51.000;5.874;2023-06-24T15:49:57;26.10;99.90
11532;DHT22;5822;51.000;5.874;2023-06-24T15:52:23;25.90;99.90
11532;DHT22;5822;51.000;5.874;2023-06-24T15:54:49;25.80;99.90
11532;DHT22;5822;51.000;5.874;2023-06-24T15:57:14;25.70;99.90
11532;DHT22;5822;51.000;5.874;2023-06-24T15:59:40;26.00;99.90